Time;durP1;ratioP1;P1;durP2;ratioP2;P2;SDS_P1;SDS_P2;PMS_P1;PMS_P2;Temp;Humidity;BMP_temperature;BMP_pressure;BME280_temperature;BME280_humidity;BME280_pressure;Samples;Min_cycle;Max_cycle;Signal;HPM_P1;HPM_P2
2021/09/27 00:00:58;;;;;;;14.70;8.87;;;15.80;99.90;;;;;;5015206;28;20962;-53
2021/09/27 00:03:26;;;;;;;14.77;8.53;;;15.90;99.90;;;;;;5014918;28;20457;-53
2021/09/27 00:05:55;;;;;;;14.50;8.73;;;15.90;99.90;;;;;;4998814;28;20458;-53
2021/09/27 00:08:22;;;;;;;13.67;9.37;;;15.90;99.90;;;;;;5010749;28;20473;-53
2021/09/27 00:10:55;;;;;;;14.80;8.90;;;15.90;99.90;;;;;;5015180;28;20480;-53
2021/09/27 00:13:24;;;;;;;14.43;9.27;;;16.00;99.90;;;;;;5015412;28;20457;-53
2021/09/27 00:15:53;;;;;;;14.13;9.20;;;16.10;99.90;;;;;;5015001;28;20887;-53
2021/09/27 00:18:20;;;;;;;13.10;8.53;;;16.00;99.90;;;;;;5015360;28;20475;-53
2021/09/27 00:20:51;;;;;;;13.00;8.80;;;15.90;99.90;;;;;;5004670;28;20445;-53
2021/09/27 00:23:21;;;;;;;18.83;9.80;;;15.80;99.90;;;;;;5014975;28;20476;-53
2021/09/27 00:25:49;;;;;;;14.07;9.20;;;15.80;99.90;;;;;;5014735;28;20460;-53
2021/09/27 00:28:17;;;;;;;12.60;8.60;;;15.80;99.90;;;;;;5014811;28;21009;-53
2021/09/27 00:30:44;;;;;;;12.57;8.53;;;15.80;99.90;;;;;;5014588;28;20968;-53
2021/09/27 00:33:12;;;;;;;11.97;8.27;;;15.70;99.90;;;;;;5013662;28;20457;-53
2021/09/27 00:35:40;;;;;;;16.77;10.47;;;15.60;99.90;;;;;;5013576;28;20450;-52
2021/09/27 00:38:08;;;;;;;15.93;9.90;;;15.70;99.90;;;;;;5014725;28;20527;-52
2021/09/27 00:40:40;;;;;;;16.43;10.30;;;15.60;99.90;;;;;;5014621;28;20453;-53
2021/09/27 00:43:08;;;;;;;16.10;10.30;;;15.60;99.90;;;;;;5014738;28;20446;-53
2021/09/27 00:45:42;;;;;;;17.60;10.60;;;15.60;99.90;;;;;;5014591;28;20839;-52
2021/09/27 00:48:10;;;;;;;16.27;9.30;;;15.50;99.90;;;;;;5014111;28;20523;-53
2021/09/27 00:50:41;;;;;;;15.90;9.70;;;15.30;99.90;;;;;;5014353;28;20997;-53
2021/09/27 00:53:15;;;;;;;16.17;9.60;;;15.20;99.90;;;;;;5014547;28;20539;-53
2021/09/27 00:55:44;;;;;;;15.87;9.63;;;15.10;99.90;;;;;;5014173;28;20461;-53
2021/09/27 00:58:13;;;;;;;16.97;10.60;;;15.10;99.90;;;;;;5013602;28;20470;-53
2021/09/27 01:00:40;;;;;;;17.67;10.13;;;15.10;99.90;;;;;;5013412;28;20499;-53
2021/09/27 01:03:07;;;;;;;17.70;11.40;;;15.10;99.90;;;;;;5014459;28;20449;-53
2021/09/27 01:05:39;;;;;;;17.57;10.40;;;15.00;99.90;;;;;;5014209;28;20461;-53
2021/09/27 01:08:19;;;;;;;18.70;11.57;;;15.00;99.90;;;;;;5014217;28;20532;-53
2021/09/27 01:11:11;;;;;;;17.40;10.43;;;15.00;99.90;;;;;;5014310;28;20449;-53
2021/09/27 01:14:13;;;;;;;19.50;11.10;;;15.00;99.90;;;;;;5013651;28;20445;-53
2021/09/27 01:16:46;;;;;;;16.03;10.50;;;15.00;99.90;;;;;;4978593;28;20465;-53
2021/09/27 01:20:02;;;;;;;17.60;10.53;;;14.90;99.90;;;;;;5012306;28;20952;-53
2021/09/27 01:22:49;;;;;;;19.47;10.67;;;15.00;99.90;;;;;;5013475;28;20453;-53
2021/09/27 01:25:35;;;;;;;24.83;10.70;;;15.00;99.90;;;;;;5013968;28;20515;-53
2021/09/27 01:28:20;;;;;;;18.00;11.07;;;15.00;99.90;;;;;;5013894;28;20955;-53
2021/09/27 01:31:20;;;;;;;19.67;10.83;;;15.00;99.90;;;;;;5013338;28;20460;-53
2021/09/27 01:33:55;;;;;;;17.47;11.10;;;15.00;99.90;;;;;;4994326;28;20961;-53
2021/09/27 01:36:28;;;;;;;17.37;10.47;;;14.90;99.90;;;;;;4994228;28;20450;-53
2021/09/27 01:39:03;;;;;;;16.23;9.90;;;14.90;99.90;;;;;;4994142;28;20533;-53
2021/09/27 01:41:35;;;;;;;17.90;10.60;;;14.90;99.90;;;;;;5000447;28;20947;-53
2021/09/27 01:44:13;;;;;;;16.43;10.47;;;15.00;99.90;;;;;;5009362;28;20450;-53
2021/09/27 01:46:47;;;;;;;19.00;10.60;;;15.00;99.90;;;;;;4994075;28;20545;-53
2021/09/27 01:49:21;;;;;;;14.87;9.77;;;15.10;99.90;;;;;;4993867;28;20988;-53
2021/09/27 01:51:54;;;;;;;12.67;8.33;;;15.10;99.90;;;;;;5002328;28;21053;-53
2021/09/27 01:54:38;;;;;;;14.03;8.60;;;15.10;99.90;;;;;;5013505;28;20453;-53
2021/09/27 01:57:13;;;;;;;11.07;7.40;;;15.00;99.90;;;;;;5012840;28;20458;-53
2021/09/27 01:59:48;;;;;;;11.97;7.77;;;15.00;99.90;;;;;;5013482;28;20499;-53
2021/09/27 02:02:23;;;;;;;15.27;9.30;;;15.00;99.90;;;;;;5012296;28;20453;-53
2021/09/27 02:04:59;;;;;;;13.77;9.00;;;15.00;99.90;;;;;;5012886;28;20503;-53
2021/09/27 02:07:30;;;;;;;12.93;8.70;;;14.90;99.90;;;;;;5013389;28;20461;-53
2021/09/27 02:10:04;;;;;;;12.37;8.60;;;15.00;99.90;;;;;;5011810;28;20453;-53
2021/09/27 02:12:39;;;;;;;13.50;8.87;;;14.90;99.90;;;;;;5012063;28;20481;-54
2021/09/27 02:15:13;;;;;;;14.10;8.77;;;14.90;99.90;;;;;;5013103;28;20506;-53
2021/09/27 02:17:45;;;;;;;16.17;10.17;;;14.90;99.90;;;;;;5007773;28;20481;-53
2021/09/27 02:20:21;;;;;;;17.70;9.43;;;14.90;99.90;;;;;;4993349;28;20450;-53
2021/09/27 02:22:54;;;;;;;16.13;9.33;;;14.80;99.90;;;;;;5011368;28;21001;-52
2021/09/27 02:25:31;;;;;;;14.50;8.57;;;14.90;99.90;;;;;;5005790;28;20454;-53
2021/09/27 02:28:01;;;;;;;19.27;9.97;;;14.90;99.90;;;;;;4992988;28;20533;-52
2021/09/27 02:30:42;;;;;;;17.03;9.30;;;14.80;99.90;;;;;;4994056;28;20497;-53
2021/09/27 02:33:20;;;;;;;13.03;8.40;;;14.90;99.90;;;;;;5010280;28;20485;-53
2021/09/27 02:35:54;;;;;;;15.30;10.00;;;14.80;99.90;;;;;;5012812;28;20449;-53
2021/09/27 02:38:25;;;;;;;17.20;9.67;;;14.80;99.90;;;;;;5011744;28;20857;-53
2021/09/27 02:40:57;;;;;;;21.10;10.70;;;14.80;99.90;;;;;;5012390;28;20461;-53
2021/09/27 02:43:25;;;;;;;17.10;9.33;;;14.60;99.90;;;;;;5012354;28;20458;-53
2021/09/27 02:45:53;;;;;;;17.10;10.20;;;14.60;99.90;;;;;;5010948;28;20453;-53
2021/09/27 02:48:31;;;;;;;15.97;9.87;;;14.50;99.90;;;;;;5007988;28;20465;-54
2021/09/27 02:51:00;;;;;;;14.80;9.33;;;14.50;99.90;;;;;;5012228;28;20461;-53
2021/09/27 02:53:27;;;;;;;17.63;9.50;;;14.50;99.90;;;;;;5012342;28;20490;-55
2021/09/27 02:56:17;;;;;;;15.17;9.20;;;14.50;99.90;;;;;;5010268;28;20880;-54
2021/09/27 02:58:49;;;;;;;16.80;9.57;;;14.60;99.90;;;;;;5011197;28;20478;-53
2021/09/27 03:01:23;;;;;;;17.20;9.20;;;14.50;99.90;;;;;;5009065;28;20528;-53
2021/09/27 03:04:06;;;;;;;16.30;9.40;;;14.50;99.90;;;;;;5012568;28;20426;-53
2021/09/27 03:06:52;;;;;;;15.20;9.30;;;14.50;99.90;;;;;;5012252;28;20449;-54
2021/09/27 03:09:27;;;;;;;17.40;9.50;;;14.50;99.90;;;;;;5011510;28;20469;-54
2021/09/27 03:12:11;;;;;;;13.83;8.60;;;14.50;99.90;;;;;;5002910;28;22431;-54
2021/09/27 03:15:08;;;;;;;15.20;8.00;;;14.50;99.90;;;;;;5009577;28;20449;-55
2021/09/27 03:17:41;;;;;;;16.17;8.90;;;14.50;99.90;;;;;;4992395;28;20567;-55
2021/09/27 03:20:32;;;;;;;18.83;9.40;;;14.50;99.90;;;;;;5006759;28;20504;-54
2021/09/27 03:23:06;;;;;;;14.30;8.60;;;14.50;99.90;;;;;;5012219;28;20487;-54
2021/09/27 03:25:44;;;;;;;17.70;8.63;;;14.40;99.90;;;;;;5010489;28;20454;-54
2021/09/27 03:28:19;;;;;;;16.77;9.50;;;14.30;99.90;;;;;;5022057;23;20551;-60
2021/09/27 03:30:58;;;;;;;16.53;9.60;;;14.30;99.90;;;;;;5010229;28;20836;-61
2021/09/27 03:33:33;;;;;;;17.20;9.97;;;14.20;99.90;;;;;;5012147;28;20477;-61
2021/09/27 03:36:16;;;;;;;15.67;8.47;;;14.20;99.90;;;;;;5011987;28;20449;-61
2021/09/27 03:38:51;;;;;;;16.50;9.77;;;14.20;99.90;;;;;;5003965;28;20538;-61
2021/09/27 03:41:29;;;;;;;13.23;8.97;;;14.30;99.90;;;;;;4989838;28;20446;-61
2021/09/27 03:44:08;;;;;;;16.70;9.63;;;14.30;99.90;;;;;;4990940;28;20509;-61
2021/09/27 03:46:47;;;;;;;15.20;10.27;;;14.30;99.90;;;;;;4981044;28;20975;-61
2021/09/27 03:49:18;;;;;;;15.23;8.83;;;14.20;99.90;;;;;;4972759;28;20534;-61
2021/09/27 03:51:50;;;;;;;15.40;9.27;;;14.40;99.90;;;;;;4989565;28;20458;-61
2021/09/27 03:54:27;;;;;;;15.13;9.50;;;14.40;99.90;;;;;;4992219;28;20446;-61
2021/09/27 03:57:00;;;;;;;16.30;10.10;;;14.30;99.90;;;;;;4991992;28;20446;-60
2021/09/27 03:59:35;;;;;;;16.13;9.47;;;14.30;99.90;;;;;;4987515;28;20474;-60
2021/09/27 04:02:07;;;;;;;14.13;9.13;;;14.40;99.90;;;;;;4975544;28;20459;-61
2021/09/27 04:04:46;;;;;;;18.00;9.53;;;14.30;99.90;;;;;;4992201;28;20438;-61
2021/09/27 04:07:28;;;;;;;15.47;9.30;;;14.40;99.90;;;;;;4987581;28;20983;-61
2021/09/27 04:10:12;;;;;;;18.90;10.90;;;14.40;99.90;;;;;;4972672;28;20573;-61
2021/09/27 04:12:54;;;;;;;18.83;9.10;;;14.40;99.90;;;;;;4976339;28;20491;-61
2021/09/27 04:15:37;;;;;;;16.83;9.80;;;14.40;99.90;;;;;;4985590;28;20450;-61
2021/09/27 04:18:12;;;;;;;17.77;10.70;;;14.30;99.90;;;;;;4989080;28;20470;-61
2021/09/27 04:20:51;;;;;;;15.10;9.20;;;14.30;99.90;;;;;;4988036;28;20449;-61
2021/09/27 04:23:29;;;;;;;17.37;9.07;;;14.40;99.90;;;;;;4992009;28;20869;-61
2021/09/27 04:26:03;;;;;;;16.70;10.30;;;14.40;99.90;;;;;;4991063;28;20515;-61
2021/09/27 04:29:00;;;;;;;11.73;7.27;;;14.30;99.90;;;;;;4991611;28;20477;-61
2021/09/27 04:31:39;;;;;;;16.00;9.00;;;14.40;99.90;;;;;;4983837;28;20509;-61
2021/09/27 04:34:33;;;;;;;14.60;9.77;;;14.40;99.90;;;;;;4981832;28;20623;-61
2021/09/27 04:37:02;;;;;;;15.53;8.60;;;14.40;99.90;;;;;;4976867;28;20451;-61
2021/09/27 04:39:34;;;;;;;15.57;9.07;;;14.40;99.90;;;;;;4983386;28;20886;-61
2021/09/27 04:42:33;;;;;;;15.53;9.90;;;14.40;99.90;;;;;;4987135;28;20450;-61
2021/09/27 04:45:23;;;;;;;13.37;8.73;;;14.40;99.90;;;;;;4994134;28;20451;-60
2021/09/27 04:47:59;;;;;;;19.80;9.90;;;14.40;99.90;;;;;;4984268;28;20957;-60
2021/09/27 04:50:42;;;;;;;15.10;9.10;;;14.30;99.90;;;;;;4988698;28;20545;-60
2021/09/27 04:53:29;;;;;;;15.97;9.10;;;14.30;99.90;;;;;;4975442;28;20537;-61
2021/09/27 04:56:17;;;;;;;16.87;10.00;;;14.30;99.90;;;;;;4978351;28;20461;-60
2021/09/27 04:58:58;;;;;;;14.93;9.50;;;14.30;99.90;;;;;;4989339;28;20477;-60
2021/09/27 05:02:07;;;;;;;13.10;8.17;;;14.30;99.90;;;;;;4992674;28;20987;-60
2021/09/27 05:04:44;;;;;;;14.40;8.80;;;14.30;99.90;;;;;;4977509;28;20482;-60
2021/09/27 05:07:38;;;;;;;14.40;9.87;;;14.30;99.90;;;;;;4977170;28;20957;-60
2021/09/27 05:10:23;;;;;;;22.93;8.57;;;14.30;99.90;;;;;;4993832;28;20458;-60
2021/09/27 05:13:05;;;;;;;16.70;9.43;;;14.30;99.90;;;;;;4984675;28;20530;-60
2021/09/27 05:16:04;;;;;;;17.27;9.40;;;14.10;99.90;;;;;;4985269;28;20459;-60
2021/09/27 05:19:03;;;;;;;16.80;9.40;;;14.20;99.90;;;;;;4993371;28;20556;-60
2021/09/27 05:22:05;;;;;;;20.47;11.10;;;14.20;99.90;;;;;;4964625;28;20514;-60
2021/09/27 05:24:55;;;;;;;17.57;9.70;;;14.20;99.90;;;;;;4953196;28;20461;-60
2021/09/27 05:27:52;;;;;;;18.23;10.10;;;14.30;99.90;;;;;;4977354;28;20962;-60
2021/09/27 05:30:32;;;;;;;20.47;10.23;;;14.30;99.90;;;;;;4988736;28;20453;-60
2021/09/27 05:33:12;;;;;;;16.80;10.53;;;14.40;99.90;;;;;;4983111;28;20483;-60
2021/09/27 05:35:59;;;;;;;14.43;9.20;;;14.50;99.90;;;;;;4975077;28;20514;-60
2021/09/27 05:38:35;;;;;;;20.87;10.23;;;14.60;99.90;;;;;;4975198;28;20538;-60
2021/09/27 05:41:14;;;;;;;17.33;10.87;;;14.60;99.90;;;;;;4979474;28;20497;-60
2021/09/27 05:44:04;;;;;;;16.70;9.67;;;14.60;99.90;;;;;;4984661;28;20446;-60
2021/09/27 05:46:49;;;;;;;17.40;10.10;;;14.70;99.90;;;;;;4998551;28;20452;-60
2021/09/27 05:49:24;;;;;;;16.77;9.40;;;14.70;99.90;;;;;;4997578;28;20525;-60
2021/09/27 05:51:57;;;;;;;15.07;9.40;;;14.80;99.90;;;;;;4983431;28;20463;-60
2021/09/27 05:54:37;;;;;;;18.40;9.80;;;14.80;99.90;;;;;;4995337;28;20486;-60
2021/09/27 05:57:11;;;;;;;19.30;8.90;;;14.80;99.90;;;;;;4993449;28;20493;-60
2021/09/27 05:59:49;;;;;;;12.73;8.37;;;14.70;99.90;;;;;;4985975;28;20470;-60
2021/09/27 06:02:32;;;;;;;12.27;7.93;;;14.80;99.90;;;;;;4991456;28;20461;-60
2021/09/27 06:05:13;;;;;;;14.87;8.80;;;14.90;99.90;;;;;;4992867;28;20460;-60
2021/09/27 06:07:49;;;;;;;13.10;9.30;;;15.00;99.90;;;;;;4992721;28;20450;-60
2021/09/27 06:10:25;;;;;;;15.70;8.27;;;14.90;99.90;;;;;;4993289;28;20505;-60
2021/09/27 06:13:01;;;;;;;16.53;9.00;;;14.70;99.90;;;;;;4982851;28;20552;-60
2021/09/27 06:15:44;;;;;;;18.50;8.53;;;14.80;99.90;;;;;;4979527;28;20455;-60
2021/09/27 06:18:24;;;;;;;18.47;8.50;;;14.90;99.90;;;;;;4978986;28;20561;-60
2021/09/27 06:21:04;;;;;;;12.43;8.33;;;15.00;99.90;;;;;;4978062;28;20470;-60
2021/09/27 06:23:50;;;;;;;14.57;9.23;;;15.20;99.90;;;;;;4976811;28;20465;-60
2021/09/27 06:26:19;;;;;;;16.60;9.60;;;15.20;99.90;;;;;;4981609;28;20605;-60
2021/09/27 06:28:52;;;;;;;18.67;10.17;;;15.10;99.90;;;;;;4975900;28;20538;-60
2021/09/27 06:31:26;;;;;;;13.90;9.10;;;15.10;99.90;;;;;;4974187;28;21170;-60
2021/09/27 06:33:57;;;;;;;17.03;9.97;;;15.20;99.90;;;;;;4979255;28;20569;-61
2021/09/27 06:36:29;;;;;;;14.53;9.90;;;15.30;99.90;;;;;;4982073;28;20462;-60
2021/09/27 06:38:58;;;;;;;15.10;9.10;;;15.30;99.90;;;;;;4977465;28;20482;-60
2021/09/27 06:41:28;;;;;;;17.63;9.10;;;15.30;99.90;;;;;;4978897;28;20517;-60
2021/09/27 06:43:55;;;;;;;18.40;9.30;;;15.20;99.90;;;;;;4977925;28;20470;-60
2021/09/27 06:46:23;;;;;;;15.30;9.23;;;15.20;99.90;;;;;;4975055;28;20886;-60
2021/09/27 06:48:51;;;;;;;12.40;8.13;;;15.20;99.90;;;;;;4986274;28;20487;-60
2021/09/27 06:51:19;;;;;;;14.53;8.57;;;15.30;99.90;;;;;;4987815;28;21024;-60
2021/09/27 06:53:47;;;;;;;18.30;8.90;;;15.40;99.90;;;;;;4973710;28;20910;-60
2021/09/27 06:56:16;;;;;;;13.50;8.00;;;15.50;99.90;;;;;;4984702;28;20466;-60
2021/09/27 06:58:42;;;;;;;11.20;7.70;;;15.60;99.90;;;;;;4991663;28;20486;-60
2021/09/27 07:01:09;;;;;;;15.53;8.10;;;15.80;99.90;;;;;;4973879;28;20451;-60
2021/09/27 07:03:36;;;;;;;12.00;7.20;;;15.90;99.90;;;;;;4974726;28;20448;-60
2021/09/27 07:06:04;;;;;;;10.20;6.70;;;16.10;99.90;;;;;;4990820;28;20876;-59
2021/09/27 07:08:31;;;;;;;10.90;7.10;;;16.10;99.90;;;;;;4977975;28;21004;-60
2021/09/27 07:10:59;;;;;;;9.03;6.63;;;16.20;99.90;;;;;;4984683;28;20467;-60
2021/09/27 07:13:26;;;;;;;11.87;7.67;;;16.30;99.90;;;;;;4977409;28;20501;-60
2021/09/27 07:15:53;;;;;;;11.50;7.30;;;16.30;99.90;;;;;;4977832;28;20538;-60
2021/09/27 07:18:20;;;;;;;12.80;7.43;;;16.40;99.90;;;;;;4992063;28;20504;-60
2021/09/27 07:20:48;;;;;;;9.67;7.40;;;16.60;99.90;;;;;;4976966;28;20537;-60
2021/09/27 07:23:15;;;;;;;12.27;8.20;;;16.80;99.90;;;;;;4986728;28;20964;-60
2021/09/27 07:25:42;;;;;;;13.90;8.27;;;16.80;99.90;;;;;;4990101;28;20489;-60
2021/09/27 07:28:11;;;;;;;10.50;7.30;;;16.80;99.90;;;;;;4981188;28;20925;-60
2021/09/27 07:30:38;;;;;;;10.80;7.30;;;17.00;99.90;;;;;;4986644;28;20545;-60
2021/09/27 07:33:06;;;;;;;11.90;7.63;;;17.00;99.90;;;;;;4989529;28;20513;-60
2021/09/27 07:35:33;;;;;;;10.77;7.00;;;17.30;99.90;;;;;;4975781;28;20495;-60
2021/09/27 07:38:00;;;;;;;9.83;6.90;;;17.30;99.90;;;;;;4979234;28;20490;-60
2021/09/27 07:40:33;;;;;;;11.67;6.97;;;17.30;99.90;;;;;;4982555;28;20521;-61
2021/09/27 07:43:01;;;;;;;13.53;8.97;;;17.40;99.90;;;;;;4979421;28;20526;-60
2021/09/27 07:45:34;;;;;;;9.87;6.80;;;17.40;99.90;;;;;;4985422;28;20521;-60
2021/09/27 07:48:01;;;;;;;10.13;7.07;;;17.50;99.90;;;;;;4977550;28;20500;-60
2021/09/27 07:50:28;;;;;;;8.77;6.73;;;17.60;99.90;;;;;;4970225;28;20463;-61
2021/09/27 07:52:55;;;;;;;11.83;7.40;;;17.70;99.90;;;;;;4981570;28;20470;-61
2021/09/27 07:55:22;;;;;;;11.67;7.83;;;17.90;99.90;;;;;;4979492;28;20552;-61
2021/09/27 07:57:49;;;;;;;11.30;7.70;;;17.90;99.90;;;;;;4982168;28;20471;-61
2021/09/27 08:00:18;;;;;;;9.87;7.40;;;18.00;99.90;;;;;;4975415;28;20463;-60
2021/09/27 08:02:47;;;;;;;9.43;7.30;;;18.10;99.90;;;;;;4978264;28;20473;-61
2021/09/27 08:05:17;;;;;;;11.10;6.47;;;18.10;99.90;;;;;;4976786;28;20466;-61
2021/09/27 08:07:44;;;;;;;9.27;6.40;;;18.10;99.90;;;;;;4981417;28;20462;-62
2021/09/27 08:10:12;;;;;;;9.80;6.23;;;18.50;99.90;;;;;;4995228;28;20948;-62
2021/09/27 08:12:40;;;;;;;9.60;5.67;;;18.90;99.90;;;;;;4978431;28;20525;-62
2021/09/27 08:15:09;;;;;;;8.30;6.07;;;19.40;99.90;;;;;;4977686;28;20500;-61
2021/09/27 08:17:36;;;;;;;7.63;5.70;;;20.00;99.90;;;;;;4978604;28;20882;-61
2021/09/27 08:20:07;;;;;;;7.73;6.10;;;20.80;99.90;;;;;;4979517;28;20485;-61
2021/09/27 08:22:34;;;;;;;8.00;5.47;;;20.90;99.90;;;;;;4989544;28;20512;-62
2021/09/27 08:25:01;;;;;;;6.83;5.60;;;21.60;99.90;;;;;;4978468;28;20463;-61
2021/09/27 08:27:28;;;;;;;7.70;6.30;;;22.00;99.90;;;;;;4981720;28;20897;-64
2021/09/27 08:29:55;;;;;;;8.00;5.57;;;22.10;99.90;;;;;;4984058;28;22627;-62
2021/09/27 08:32:22;;;;;;;6.07;5.23;;;22.10;99.90;;;;;;4983979;28;20964;-62
2021/09/27 08:34:52;;;;;;;7.70;6.50;;;22.60;99.90;;;;;;4991053;28;20548;-61
2021/09/27 08:37:21;;;;;;;10.50;6.70;;;22.80;99.90;;;;;;4982797;28;20473;-62
2021/09/27 08:39:48;;;;;;;8.50;6.43;;;22.70;99.90;;;;;;4980313;28;21018;-61
2021/09/27 08:42:20;;;;;;;8.20;7.17;;;22.80;99.90;;;;;;4980020;28;20467;-61
2021/09/27 08:44:52;;;;;;;7.80;6.50;;;22.90;99.90;;;;;;4978914;28;20532;-61
2021/09/27 08:47:27;;;;;;;7.00;6.10;;;23.10;99.90;;;;;;4977476;28;20466;-61
2021/09/27 08:49:58;;;;;;;6.23;5.60;;;23.30;99.90;;;;;;4980542;28;20478;-60
2021/09/27 08:52:30;;;;;;;7.03;6.13;;;23.30;99.90;;;;;;4982405;28;20467;-61
2021/09/27 08:54:59;;;;;;;7.40;5.80;;;23.50;99.90;;;;;;4986558;28;21045;-61
2021/09/27 08:57:42;;;;;;;6.27;5.63;;;23.80;99.90;;;;;;4980044;28;20474;-61
2021/09/27 09:00:23;;;;;;;6.90;5.80;;;23.90;99.90;;;;;;4980467;28;20466;-62
2021/09/27 09:02:58;;;;;;;6.00;5.20;;;24.30;99.90;;;;;;4979328;28;20463;-62
2021/09/27 09:05:35;;;;;;;8.40;6.27;;;24.70;99.90;;;;;;4986492;28;20459;-62
2021/09/27 09:08:08;;;;;;;5.27;4.77;;;25.10;99.90;;;;;;4986826;28;21322;-61
2021/09/27 09:10:44;;;;;;;6.50;5.80;;;24.80;99.90;;;;;;4993857;28;20894;-62
2021/09/27 09:13:15;;;;;;;7.33;5.77;;;24.60;99.90;;;;;;4992091;28;20474;-61
2021/09/27 09:15:57;;;;;;;9.27;6.10;;;25.00;99.90;;;;;;4992504;28;20489;-61
2021/09/27 09:18:28;;;;;;;9.33;6.03;;;25.10;99.90;;;;;;4979241;28;20474;-61
2021/09/27 09:20:59;;;;;;;7.00;6.00;;;24.60;99.90;;;;;;4993224;28;20901;-63
2021/09/27 09:23:32;;;;;;;7.63;6.00;;;25.00;99.90;;;;;;4993112;28;20487;-62
2021/09/27 09:26:01;;;;;;;9.47;7.10;;;24.80;99.90;;;;;;4984358;28;20465;-62
2021/09/27 09:28:28;;;;;;;7.70;6.90;;;25.10;99.90;;;;;;5017322;23;20485;-57
2021/09/27 09:31:04;;;;;;;7.57;5.70;;;25.50;99.90;;;;;;5025663;28;20464;-58
2021/09/27 09:33:45;;;;;;;6.90;6.20;;;25.10;99.90;;;;;;5023813;28;20460;-57
2021/09/27 09:36:16;;;;;;;11.63;6.17;;;25.30;99.90;;;;;;5029198;28;20885;-58
2021/09/27 09:38:46;;;;;;;7.87;5.80;;;25.50;99.90;;;;;;5018398;28;21019;-57
2021/09/27 09:41:15;;;;;;;8.10;5.93;;;25.90;99.90;;;;;;5021704;28;20461;-56
2021/09/27 09:43:46;;;;;;;7.77;6.30;;;26.20;99.90;;;;;;5027250;28;20520;-56
2021/09/27 09:46:16;;;;;;;7.57;6.17;;;24.60;99.90;;;;;;5027834;28;20469;-57
2021/09/27 09:49:04;;;;;;;8.23;5.90;;;24.30;99.90;;;;;;5021627;28;20530;-58
2021/09/27 09:51:37;;;;;;;6.50;5.30;;;24.80;99.90;;;;;;5016581;28;20465;-56
2021/09/27 09:54:12;;;;;;;7.50;6.07;;;25.20;99.90;;;;;;5032409;28;20488;-56
2021/09/27 09:56:42;;;;;;;9.60;6.60;;;25.80;99.90;;;;;;5022515;28;20895;-58
2021/09/27 09:59:24;;;;;;;7.70;6.63;;;25.50;99.90;;;;;;5026011;28;20481;-57
2021/09/27 10:01:54;;;;;;;6.77;6.00;;;25.20;99.90;;;;;;5019534;28;21065;-59
2021/09/27 10:04:24;;;;;;;5.83;5.30;;;25.70;99.90;;;;;;5025504;28;20962;-57
2021/09/27 10:07:00;;;;;;;6.43;5.83;;;26.00;99.90;;;;;;5029985;28;20464;-56
2021/09/27 10:09:31;;;;;;;7.00;6.30;;;26.00;99.90;;;;;;5026214;28;20567;-57
2021/09/27 10:12:01;;;;;;;7.03;6.07;;;26.20;99.90;;;;;;5015803;28;20457;-59
2021/09/27 10:14:38;;;;;;;13.83;6.77;;;26.20;99.90;;;;;;5017834;28;20485;-57
2021/09/27 10:17:14;;;;;;;6.43;5.80;;;26.00;99.90;;;;;;5023311;28;20491;-57
2021/09/27 10:19:53;;;;;;;7.10;6.27;;;26.30;99.90;;;;;;5028240;28;20487;-57
2021/09/27 10:22:24;;;;;;;6.87;5.80;;;25.70;99.90;;;;;;5016509;28;20548;-57
2021/09/27 10:24:54;;;;;;;6.93;6.23;;;24.90;99.90;;;;;;5024483;28;20460;-55
2021/09/27 10:27:26;;;;;;;7.73;6.70;;;24.60;99.90;;;;;;5017918;28;20461;-56
2021/09/27 10:29:54;;;;;;;9.40;6.90;;;25.20;99.90;;;;;;5016440;28;21094;-56
2021/09/27 10:32:33;;;;;;;7.23;6.53;;;25.20;99.90;;;;;;5022566;28;20461;-56
2021/09/27 10:35:04;;;;;;;6.80;6.10;;;25.10;99.90;;;;;;5021297;28;20484;-57
2021/09/27 10:37:32;;;;;;;6.47;5.63;;;24.60;99.90;;;;;;5026518;28;20465;-56
2021/09/27 10:40:00;;;;;;;6.70;6.03;;;24.30;99.90;;;;;;5018300;28;20487;-54
2021/09/27 10:42:37;;;;;;;7.20;5.87;;;24.30;99.90;;;;;;5022514;28;20575;-55
2021/09/27 10:45:08;;;;;;;9.00;6.73;;;24.30;99.90;;;;;;5014941;28;20539;-55
2021/09/27 10:47:38;;;;;;;7.13;6.30;;;23.80;99.90;;;;;;5017898;28;20464;-56
2021/09/27 10:50:11;;;;;;;7.90;6.60;;;23.20;99.90;;;;;;5002925;28;20454;-58
2021/09/27 10:52:45;;;;;;;8.03;6.40;;;23.20;99.90;;;;;;5008577;28;20218;-56
2021/09/27 10:55:18;;;;;;;8.93;7.13;;;23.20;99.90;;;;;;5017157;28;20485;-56
2021/09/27 10:57:52;;;;;;;8.07;6.70;;;22.80;99.90;;;;;;5022356;28;20465;-53
2021/09/27 11:00:31;;;;;;;7.70;6.90;;;22.70;99.90;;;;;;5025597;28;20492;-54
2021/09/27 11:03:06;;;;;;;7.03;6.20;;;22.80;99.90;;;;;;5027781;28;20551;-53
2021/09/27 11:05:47;;;;;;;10.00;6.77;;;22.90;99.90;;;;;;5031719;28;20462;-53
2021/09/27 11:08:18;;;;;;;6.67;5.80;;;23.00;99.90;;;;;;5028786;28;20489;-54
2021/09/27 11:10:49;;;;;;;7.90;6.80;;;23.20;99.90;;;;;;5022752;28;21078;-54
2021/09/27 11:13:36;;;;;;;8.37;6.20;;;23.10;99.90;;;;;;5030887;28;20560;-54
2021/09/27 11:16:11;;;;;;;7.20;6.50;;;22.90;99.90;;;;;;5031648;28;20510;-54
2021/09/27 11:18:48;;;;;;;7.83;6.10;;;23.20;99.90;;;;;;5023372;28;20492;-54
2021/09/27 11:21:22;;;;;;;7.00;6.07;;;23.10;99.90;;;;;;5015944;28;20502;-54
2021/09/27 11:24:03;;;;;;;7.37;6.67;;;23.20;99.90;;;;;;5030520;28;20460;-53
2021/09/27 11:26:36;;;;;;;7.60;6.83;;;22.70;99.90;;;;;;5022822;28;20548;-54
2021/09/27 11:29:32;;;;;;;7.30;5.87;;;22.60;99.90;;;;;;5027307;28;20496;-54
2021/09/27 11:32:40;;;;;;;6.43;5.80;;;22.50;99.90;;;;;;5021569;28;20445;-54
2021/09/27 11:35:10;;;;;;;10.00;5.87;;;22.50;99.90;;;;;;5030124;28;20488;-54
2021/09/27 11:37:58;;;;;;;8.00;6.73;;;22.10;99.90;;;;;;5013345;28;20480;-53
2021/09/27 11:40:37;;;;;;;8.60;6.80;;;21.90;99.90;;;;;;5021584;28;20481;-54
2021/09/27 11:43:23;;;;;;;7.17;6.40;;;21.70;99.90;;;;;;5032392;28;21045;-54
2021/09/27 11:45:55;;;;;;;8.43;6.50;;;21.80;99.90;;;;;;5029893;28;21036;-54
2021/09/27 11:48:56;;;;;;;10.43;7.00;;;21.90;99.90;;;;;;5033960;28;20468;-53
2021/09/27 11:51:37;;;;;;;7.73;6.93;;;21.90;99.90;;;;;;5026049;28;20520;-54
2021/09/27 11:54:22;;;;;;;7.70;6.63;;;21.80;99.90;;;;;;5020917;28;20476;-54
2021/09/27 11:57:02;;;;;;;9.60;7.30;;;22.00;99.90;;;;;;5034441;28;20460;-54
2021/09/27 11:59:41;;;;;;;8.20;6.13;;;22.10;99.90;;;;;;5031241;28;20491;-54
2021/09/27 12:02:24;;;;;;;7.60;6.50;;;22.10;99.90;;;;;;5026197;28;20522;-53
2021/09/27 12:05:20;;;;;;;7.93;6.53;;;21.90;99.90;;;;;;5029860;28;20459;-54
2021/09/27 12:07:52;;;;;;;9.80;6.60;;;21.70;99.90;;;;;;5034968;28;20510;-57
2021/09/27 12:10:27;;;;;;;9.03;6.50;;;21.30;99.90;;;;;;5032692;28;20549;-53
2021/09/27 12:12:56;;;;;;;8.00;6.30;;;21.50;99.90;;;;;;5032199;28;20468;-53
2021/09/27 12:15:29;;;;;;;7.50;6.40;;;21.60;99.90;;;;;;5024039;28;21021;-54
2021/09/27 12:17:55;;;;;;;7.50;6.70;;;21.50;99.90;;;;;;5034126;28;20510;-54
2021/09/27 12:20:32;;;;;;;8.37;5.83;;;21.30;99.90;;;;;;5020334;28;20468;-54
2021/09/27 12:23:02;;;;;;;8.30;6.37;;;21.30;99.90;;;;;;5033992;28;20464;-54
2021/09/27 12:25:35;;;;;;;7.97;7.00;;;21.50;99.90;;;;;;5030210;28;20883;-53
2021/09/27 12:28:05;;;;;;;8.23;6.50;;;21.80;99.90;;;;;;5030704;28;20460;-54
2021/09/27 12:30:36;;;;;;;8.53;5.87;;;22.10;99.90;;;;;;5029530;28;20444;-53
2021/09/27 12:33:08;;;;;;;7.17;5.93;;;22.40;99.90;;;;;;5032078;28;20502;-54
2021/09/27 12:35:38;;;;;;;6.43;5.83;;;22.50;99.90;;;;;;5014585;28;20995;-53
2021/09/27 12:38:06;;;;;;;7.57;5.67;;;22.60;99.90;;;;;;5027488;28;20887;-54
2021/09/27 12:40:38;;;;;;;7.27;6.50;;;22.70;99.90;;;;;;5022818;28;20475;-54
2021/09/27 12:43:13;;;;;;;7.30;5.97;;;22.50;99.90;;;;;;5023527;28;20460;-54
2021/09/27 12:45:43;;;;;;;10.10;6.73;;;22.70;99.90;;;;;;5028905;28;20490;-54
2021/09/27 12:48:15;;;;;;;8.77;6.33;;;22.90;99.90;;;;;;5030213;28;20542;-53
2021/09/27 12:50:49;;;;;;;7.80;7.00;;;22.80;99.90;;;;;;5034281;28;20546;-54
2021/09/27 12:53:19;;;;;;;7.87;5.93;;;22.90;99.90;;;;;;5027802;28;20517;-54
2021/09/27 12:55:53;;;;;;;7.70;6.43;;;22.90;99.90;;;;;;5022632;28;20908;-54
2021/09/27 12:58:26;;;;;;;8.27;6.53;;;22.90;99.90;;;;;;5034056;28;20506;-54
2021/09/27 13:00:55;;;;;;;10.07;6.70;;;22.90;99.90;;;;;;5031874;28;21960;-54
2021/09/27 13:03:26;;;;;;;7.00;6.23;;;22.80;99.90;;;;;;5033682;28;20503;-54
2021/09/27 13:06:10;;;;;;;13.50;7.17;;;22.40;99.90;;;;;;5022561;28;20879;-54
2021/09/27 13:08:45;;;;;;;7.93;6.70;;;21.90;99.90;;;;;;5022073;28;20472;-53
2021/09/27 13:11:30;;;;;;;10.33;6.63;;;21.80;99.90;;;;;;5018393;28;20462;-53
2021/09/27 13:14:00;;;;;;;6.97;6.20;;;21.60;99.90;;;;;;5018968;28;20465;-54
2021/09/27 13:16:34;;;;;;;8.53;6.53;;;21.80;99.90;;;;;;5023725;28;20565;-53
2021/09/27 13:19:01;;;;;;;7.90;6.60;;;21.80;99.90;;;;;;5020678;28;20540;-53
2021/09/27 13:21:35;;;;;;;7.80;6.20;;;21.70;99.90;;;;;;5018879;28;20471;-54